sensor_id;sensor_type;location;lat;lon;timestamp;temperature;humidity
60293;DHT22;52402;52.670;6.750;2024-02-21T00:00:18;8.90;99.90
60293;DHT22;52402;52.670;6.750;2024-02-21T00:02:44;8.90;99.90
60293;DHT22;52402;52.670;6.750;2024-02-21T00:05:09;8.90;99.90
60293;DHT22;52402;52.670;6.750;2024-02-21T00:07:35;8.90;99.90
60293;DHT22;52402;52.670;6.750;2024-02-21T00:10:00;8.90;99.90
60293;DHT22;52402;52.670;6.750;2024-02-21T00:12:26;8.90;99.90
60293;DHT22;52402;52.670;6.750;2024-02-21T00:14:51;8.90;99.90
60293;DHT22;52402;52.670;6.750;2024-02-21T00:17:19;8.90;99.90
60293;DHT22;52402;52.670;6.750;2024-02-21T00:19:45;9.00;99.90
60293;DHT22;52402;52.670;6.750;2024-02-21T00:22:10;8.90;99.90
60293;DHT22;52402;52.670;6.750;2024-02-21T00:24:37;9.00;99.90
60293;DHT22;52402;52.670;6.750;2024-02-21T00:27:02;9.00;99.90
60293;DHT22;52402;52.670;6.750;2024-02-21T00:29:28;9.00;99.90
60293;DHT22;52402;52.670;6.750;2024-02-21T00:31:54;9.00;99.90
60293;DHT22;52402;52.670;6.750;2024-02-21T00:34:19;9.00;99.90
60293;DHT22;52402;52.670;6.750;2024-02-21T00:36:45;9.00;99.90
60293;DHT22;52402;52.670;6.750;2024-02-21T00:39:10;9.00;99.90
60293;DHT22;52402;52.670;6.750;2024-02-21T00:41:36;9.00;99.90
60293;DHT22;52402;52.670;6.750;2024-02-21T00:44:02;9.00;99.90
60293;DHT22;52402;52.670;6.750;2024-02-21T00:46:30;9.00;99.90
60293;DHT22;52402;52.670;6.750;2024-02-21T00:48:56;9.00;99.90
60293;DHT22;52402;52.670;6.750;2024-02-21T00:51:22;9.00;99.90
60293;DHT22;52402;52.670;6.750;2024-02-21T00:53:47;9.00;99.90
60293;DHT22;52402;52.670;6.750;2024-02-21T00:56:14;9.00;99.90
60293;DHT22;52402;52.670;6.750;2024-02-21T00:58:39;9.00;99.90
60293;DHT22;52402;52.670;6.750;2024-02-21T01:01:05;9.00;99.90
60293;DHT22;52402;52.670;6.750;2024-02-21T01:03:31;9.00;99.90
60293;DHT22;52402;52.670;6.750;2024-02-21T01:05:56;9.10;99.90
60293;DHT22;52402;52.670;6.750;2024-02-21T01:08:22;9.00;99.90
60293;DHT22;52402;52.670;6.750;2024-02-21T01:10:49;9.00;99.90
60293;DHT22;52402;52.670;6.750;2024-02-21T01:13:14;9.00;99.90
60293;DHT22;52402;52.670;6.750;2024-02-21T01:15:40;9.10;99.90
60293;DHT22;52402;52.670;6.750;2024-02-21T01:18:05;9.00;99.90
60293;DHT22;52402;52.670;6.750;2024-02-21T01:20:31;9.00;99.90
60293;DHT22;52402;52.670;6.750;2024-02-21T01:22:57;9.00;99.90
60293;DHT22;52402;52.670;6.750;2024-02-21T01:25:23;9.00;99.90
60293;DHT22;52402;52.670;6.750;2024-02-21T01:27:48;9.00;99.90
60293;DHT22;52402;52.670;6.750;2024-02-21T01:30:14;9.00;99.90
60293;DHT22;52402;52.670;6.750;2024-02-21T01:32:40;9.00;99.90
60293;DHT22;52402;52.670;6.750;2024-02-21T01:35:07;9.00;99.90
60293;DHT22;52402;52.670;6.750;2024-02-21T01:37:33;9.00;99.90
60293;DHT22;52402;52.670;6.750;2024-02-21T01:39:58;9.00;99.90
60293;DHT22;52402;52.670;6.750;2024-02-21T01:42:24;9.00;99.90
60293;DHT22;52402;52.670;6.750;2024-02-21T01:44:50;9.00;99.90
60293;DHT22;52402;52.670;6.750;2024-02-21T01:47:16;9.00;99.90
60293;DHT22;52402;52.670;6.750;2024-02-21T01:49:42;9.00;99.90
60293;DHT22;52402;52.670;6.750;2024-02-21T01:52:10;9.00;99.90
60293;DHT22;52402;52.670;6.750;2024-02-21T01:54:37;9.00;99.90
60293;DHT22;52402;52.670;6.750;2024-02-21T01:57:03;9.00;99.90
60293;DHT22;52402;52.670;6.750;2024-02-21T01:59:30;9.00;99.90
60293;DHT22;52402;52.670;6.750;2024-02-21T02:01:55;9.00;99.90
60293;DHT22;52402;52.670;6.750;2024-02-21T02:04:23;9.00;99.90
60293;DHT22;52402;52.670;6.750;2024-02-21T02:06:51;9.00;99.90
60293;DHT22;52402;52.670;6.750;2024-02-21T02:09:16;9.00;99.90
60293;DHT22;52402;52.670;6.750;2024-02-21T02:11:43;9.00;99.90
60293;DHT22;52402;52.670;6.750;2024-02-21T02:14:09;9.00;99.90
60293;DHT22;52402;52.670;6.750;2024-02-21T02:16:35;9.00;99.90
60293;DHT22;52402;52.670;6.750;2024-02-21T02:19:00;9.00;99.90
60293;DHT22;52402;52.670;6.750;2024-02-21T02:21:30;9.00;99.90
60293;DHT22;52402;52.670;6.750;2024-02-21T02:23:59;9.00;99.90
60293;DHT22;52402;52.670;6.750;2024-02-21T02:26:24;9.00;99.90
60293;DHT22;52402;52.670;6.750;2024-02-21T02:28:50;9.00;99.90
60293;DHT22;52402;52.670;6.750;2024-02-21T02:31:16;9.00;99.90
60293;DHT22;52402;52.670;6.750;2024-02-21T02:33:44;9.00;99.90
60293;DHT22;52402;52.670;6.750;2024-02-21T02:36:10;9.00;99.90
60293;DHT22;52402;52.670;6.750;2024-02-21T02:38:35;9.00;99.90
60293;DHT22;52402;52.670;6.750;2024-02-21T02:41:02;8.90;99.90
60293;DHT22;52402;52.670;6.750;2024-02-21T02:43:28;8.90;99.90
60293;DHT22;52402;52.670;6.750;2024-02-21T02:45:53;8.90;99.90
60293;DHT22;52402;52.670;6.750;2024-02-21T02:48:19;8.90;99.90
60293;DHT22;52402;52.670;6.750;2024-02-21T02:53:29;8.80;99.90
60293;DHT22;52402;52.670;6.750;2024-02-21T02:55:55;8.80;99.90
60293;DHT22;52402;52.670;6.750;2024-02-21T02:58:20;8.80;99.90
60293;DHT22;52402;52.670;6.750;2024-02-21T03:00:46;8.70;99.90
60293;DHT22;52402;52.670;6.750;2024-02-21T03:03:12;8.70;99.90
60293;DHT22;52402;52.670;6.750;2024-02-21T03:05:37;8.60;99.90
60293;DHT22;52402;52.670;6.750;2024-02-21T03:08:03;8.60;99.90
60293;DHT22;52402;52.670;6.750;2024-02-21T03:10:32;8.60;99.90
60293;DHT22;52402;52.670;6.750;2024-02-21T03:12:58;8.60;99.90
60293;DHT22;52402;52.670;6.750;2024-02-21T03:15:24;8.60;99.90
60293;DHT22;52402;52.670;6.750;2024-02-21T03:17:49;8.60;99.90
60293;DHT22;52402;52.670;6.750;2024-02-21T03:20:15;8.50;99.90
60293;DHT22;52402;52.670;6.750;2024-02-21T03:22:41;8.60;99.90
60293;DHT22;52402;52.670;6.750;2024-02-21T03:25:10;8.50;99.90
60293;DHT22;52402;52.670;6.750;2024-02-21T03:27:36;8.50;99.90
60293;DHT22;52402;52.670;6.750;2024-02-21T03:30:02;8.50;99.90
60293;DHT22;52402;52.670;6.750;2024-02-21T03:32:29;8.50;99.90
60293;DHT22;52402;52.670;6.750;2024-02-21T03:34:55;8.50;99.90
60293;DHT22;52402;52.670;6.750;2024-02-21T03:37:21;8.50;99.90
60293;DHT22;52402;52.670;6.750;2024-02-21T03:39:49;8.50;99.90
60293;DHT22;52402;52.670;6.750;2024-02-21T03:42:28;8.50;99.90
60293;DHT22;52402;52.670;6.750;2024-02-21T03:44:55;8.50;99.90
60293;DHT22;52402;52.670;6.750;2024-02-21T03:47:21;8.50;99.90
60293;DHT22;52402;52.670;6.750;2024-02-21T03:49:47;8.50;99.90
60293;DHT22;52402;52.670;6.750;2024-02-21T03:52:13;8.50;99.90
60293;DHT22;52402;52.670;6.750;2024-02-21T03:54:38;8.50;99.90
60293;DHT22;52402;52.670;6.750;2024-02-21T03:57:05;8.50;99.90
60293;DHT22;52402;52.670;6.750;2024-02-21T03:59:31;8.50;99.90
60293;DHT22;52402;52.670;6.750;2024-02-21T04:01:56;8.50;99.90
60293;DHT22;52402;52.670;6.750;2024-02-21T04:04:22;8.40;99.90
60293;DHT22;52402;52.670;6.750;2024-02-21T04:06:49;8.50;99.90
60293;DHT22;52402;52.670;6.750;2024-02-21T04:09:14;8.50;99.90
60293;DHT22;52402;52.670;6.750;2024-02-21T04:11:40;8.50;99.90
60293;DHT22;52402;52.670;6.750;2024-02-21T04:14:05;8.50;99.90
60293;DHT22;52402;52.670;6.750;2024-02-21T04:16:31;8.50;99.90
60293;DHT22;52402;52.670;6.750;2024-02-21T04:18:57;8.50;99.90
60293;DHT22;52402;52.670;6.750;2024-02-21T04:21:22;8.50;99.90
60293;DHT22;52402;52.670;6.750;2024-02-21T04:23:48;8.50;99.90
60293;DHT22;52402;52.670;6.750;2024-02-21T04:26:13;8.50;99.90
60293;DHT22;52402;52.670;6.750;2024-02-21T04:28:39;8.50;99.90
60293;DHT22;52402;52.670;6.750;2024-02-21T04:31:05;8.50;99.90
60293;DHT22;52402;52.670;6.750;2024-02-21T04:33:30;8.50;99.90
60293;DHT22;52402;52.670;6.750;2024-02-21T04:35:56;8.50;99.90
60293;DHT22;52402;52.670;6.750;2024-02-21T04:38:24;8.50;99.90
60293;DHT22;52402;52.670;6.750;2024-02-21T04:40:49;8.50;99.90
60293;DHT22;52402;52.670;6.750;2024-02-21T04:43:15;8.50;99.90
60293;DHT22;52402;52.670;6.750;2024-02-21T04:45:41;8.50;99.90
60293;DHT22;52402;52.670;6.750;2024-02-21T04:48:06;8.50;99.90
60293;DHT22;52402;52.670;6.750;2024-02-21T04:50:32;8.50;99.90
60293;DHT22;52402;52.670;6.750;2024-02-21T04:52:58;8.60;99.90
60293;DHT22;52402;52.670;6.750;2024-02-21T04:55:23;8.60;99.90
60293;DHT22;52402;52.670;6.750;2024-02-21T04:57:49;8.60;99.90
60293;DHT22;52402;52.670;6.750;2024-02-21T05:00:15;8.60;99.90
60293;DHT22;52402;52.670;6.750;2024-02-21T05:02:40;8.60;99.90
60293;DHT22;52402;52.670;6.750;2024-02-21T05:05:06;8.50;99.90
60293;DHT22;52402;52.670;6.750;2024-02-21T05:07:32;8.50;99.90
60293;DHT22;52402;52.670;6.750;2024-02-21T05:09:58;8.60;99.90
60293;DHT22;52402;52.670;6.750;2024-02-21T05:12:23;8.60;99.90
60293;DHT22;52402;52.670;6.750;2024-02-21T05:14:49;8.60;99.90
60293;DHT22;52402;52.670;6.750;2024-02-21T05:17:15;8.60;99.90
60293;DHT22;52402;52.670;6.750;2024-02-21T05:19:41;8.60;99.90
60293;DHT22;52402;52.670;6.750;2024-02-21T05:22:07;8.60;99.90
60293;DHT22;52402;52.670;6.750;2024-02-21T05:24:32;8.60;99.90
60293;DHT22;52402;52.670;6.750;2024-02-21T05:26:58;8.60;99.90
60293;DHT22;52402;52.670;6.750;2024-02-21T05:29:24;8.60;99.90
60293;DHT22;52402;52.670;6.750;2024-02-21T05:34:19;8.60;99.90
60293;DHT22;52402;52.670;6.750;2024-02-21T05:36:45;8.60;99.90
60293;DHT22;52402;52.670;6.750;2024-02-21T05:39:11;8.70;99.90
60293;DHT22;52402;52.670;6.750;2024-02-21T05:41:37;8.60;99.90
60293;DHT22;52402;52.670;6.750;2024-02-21T05:44:02;8.60;99.90
60293;DHT22;52402;52.670;6.750;2024-02-21T05:46:28;8.70;99.90
60293;DHT22;52402;52.670;6.750;2024-02-21T05:48:54;8.60;99.90
60293;DHT22;52402;52.670;6.750;2024-02-21T05:51:19;8.70;99.90
60293;DHT22;52402;52.670;6.750;2024-02-21T05:53:45;8.60;99.90
60293;DHT22;52402;52.670;6.750;2024-02-21T05:56:11;8.60;99.90
60293;DHT22;52402;52.670;6.750;2024-02-21T05:58:38;8.70;99.90
60293;DHT22;52402;52.670;6.750;2024-02-21T06:01:04;8.70;99.90
60293;DHT22;52402;52.670;6.750;2024-02-21T06:03:30;8.70;99.90
60293;DHT22;52402;52.670;6.750;2024-02-21T06:05:56;8.60;99.90
60293;DHT22;52402;52.670;6.750;2024-02-21T06:08:21;8.70;99.90
60293;DHT22;52402;52.670;6.750;2024-02-21T06:10:47;8.70;99.90
60293;DHT22;52402;52.670;6.750;2024-02-21T06:13:14;8.70;99.90
60293;DHT22;52402;52.670;6.750;2024-02-21T06:15:40;8.60;99.90
60293;DHT22;52402;52.670;6.750;2024-02-21T06:18:05;8.70;99.90
60293;DHT22;52402;52.670;6.750;2024-02-21T06:20:31;8.70;99.90
60293;DHT22;52402;52.670;6.750;2024-02-21T06:22:57;8.70;99.90
60293;DHT22;52402;52.670;6.750;2024-02-21T06:25:22;8.70;99.90
60293;DHT22;52402;52.670;6.750;2024-02-21T06:27:48;8.60;99.90
60293;DHT22;52402;52.670;6.750;2024-02-21T06:30:14;8.60;99.90
60293;DHT22;52402;52.670;6.750;2024-02-21T06:32:39;8.70;99.90
60293;DHT22;52402;52.670;6.750;2024-02-21T06:35:05;8.70;99.90
60293;DHT22;52402;52.670;6.750;2024-02-21T06:37:31;8.70;99.90
60293;DHT22;52402;52.670;6.750;2024-02-21T06:39:57;8.70;99.90
60293;DHT22;52402;52.670;6.750;2024-02-21T06:42:25;8.70;99.90
60293;DHT22;52402;52.670;6.750;2024-02-21T06:44:51;8.70;99.90
60293;DHT22;52402;52.670;6.750;2024-02-21T06:47:16;8.70;99.90
60293;DHT22;52402;52.670;6.750;2024-02-21T06:49:42;8.70;99.90
60293;DHT22;52402;52.670;6.750;2024-02-21T06:52:08;8.70;99.90
60293;DHT22;52402;52.670;6.750;2024-02-21T06:54:33;8.70;99.90
60293;DHT22;52402;52.670;6.750;2024-02-21T06:56:59;8.70;99.90
60293;DHT22;52402;52.670;6.750;2024-02-21T06:59:25;8.70;99.90
60293;DHT22;52402;52.670;6.750;2024-02-21T07:01:54;8.70;99.90
60293;DHT22;52402;52.670;6.750;2024-02-21T07:04:22;8.60;99.90
60293;DHT22;52402;52.670;6.750;2024-02-21T07:06:48;8.70;99.90
60293;DHT22;52402;52.670;6.750;2024-02-21T07:09:14;8.60;99.90
60293;DHT22;52402;52.670;6.750;2024-02-21T07:11:41;8.60;99.90
60293;DHT22;52402;52.670;6.750;2024-02-21T07:14:07;8.60;99.90
60293;DHT22;52402;52.670;6.750;2024-02-21T07:16:33;8.60;99.90
60293;DHT22;52402;52.670;6.750;2024-02-21T07:18:58;8.60;99.90
60293;DHT22;52402;52.670;6.750;2024-02-21T07:21:24;8.60;99.90
60293;DHT22;52402;52.670;6.750;2024-02-21T07:23:49;8.60;99.90
60293;DHT22;52402;52.670;6.750;2024-02-21T07:26:15;8.60;99.90
60293;DHT22;52402;52.670;6.750;2024-02-21T07:28:40;8.60;99.90
60293;DHT22;52402;52.670;6.750;2024-02-21T07:31:06;8.60;99.90
60293;DHT22;52402;52.670;6.750;2024-02-21T07:33:32;8.60;99.90
60293;DHT22;52402;52.670;6.750;2024-02-21T07:35:58;8.60;99.90
60293;DHT22;52402;52.670;6.750;2024-02-21T07:38:23;8.60;99.90
60293;DHT22;52402;52.670;6.750;2024-02-21T07:40:49;8.60;99.90
60293;DHT22;52402;52.670;6.750;2024-02-21T07:43:15;8.60;99.90
60293;DHT22;52402;52.670;6.750;2024-02-21T07:45:40;8.50;99.90
60293;DHT22;52402;52.670;6.750;2024-02-21T07:48:06;8.60;99.90
60293;DHT22;52402;52.670;6.750;2024-02-21T07:50:32;8.60;99.90
60293;DHT22;52402;52.670;6.750;2024-02-21T07:53:21;8.60;99.90
60293;DHT22;52402;52.670;6.750;2024-02-21T07:58:55;8.60;99.90
60293;DHT22;52402;52.670;6.750;2024-02-21T08:01:21;8.60;99.90
60293;DHT22;52402;52.670;6.750;2024-02-21T08:03:47;8.60;99.90
60293;DHT22;52402;52.670;6.750;2024-02-21T08:06:13;8.70;99.90
60293;DHT22;52402;52.670;6.750;2024-02-21T08:12:04;8.60;99.90
60293;DHT22;52402;52.670;6.750;2024-02-21T08:14:44;8.70;99.90
60293;DHT22;52402;52.670;6.750;2024-02-21T08:17:09;8.60;99.90
60293;DHT22;52402;52.670;6.750;2024-02-21T08:19:36;8.60;99.90
60293;DHT22;52402;52.670;6.750;2024-02-21T08:22:01;8.60;99.90
60293;DHT22;52402;52.670;6.750;2024-02-21T08:24:28;8.60;99.90
60293;DHT22;52402;52.670;6.750;2024-02-21T08:26:54;8.60;99.90
60293;DHT22;52402;52.670;6.750;2024-02-21T08:29:20;8.60;99.90
60293;DHT22;52402;52.670;6.750;2024-02-21T08:31:45;8.70;99.90
60293;DHT22;52402;52.670;6.750;2024-02-21T08:34:11;8.70;99.90
60293;DHT22;52402;52.670;6.750;2024-02-21T08:36:38;8.70;99.90
60293;DHT22;52402;52.670;6.750;2024-02-21T08:39:04;8.70;99.90
60293;DHT22;52402;52.670;6.750;2024-02-21T08:41:33;8.70;99.90
60293;DHT22;52402;52.670;6.750;2024-02-21T08:44:02;8.80;99.90
60293;DHT22;52402;52.670;6.750;2024-02-21T08:46:50;8.80;99.90
60293;DHT22;52402;52.670;6.750;2024-02-21T08:50:19;8.90;99.90
60293;DHT22;52402;52.670;6.750;2024-02-21T08:56:26;8.90;99.90
60293;DHT22;52402;52.670;6.750;2024-02-21T08:58:54;9.00;99.90
60293;DHT22;52402;52.670;6.750;2024-02-21T09:01:20;9.00;99.90
60293;DHT22;52402;52.670;6.750;2024-02-21T09:03:52;9.00;99.90
60293;DHT22;52402;52.670;6.750;2024-02-21T09:06:24;9.00;99.90
60293;DHT22;52402;52.670;6.750;2024-02-21T09:09:13;9.00;99.90
60293;DHT22;52402;52.670;6.750;2024-02-21T09:12:02;9.00;99.90
60293;DHT22;52402;52.670;6.750;2024-02-21T09:14:37;9.10;99.90
60293;DHT22;52402;52.670;6.750;2024-02-21T09:17:06;9.00;99.90
60293;DHT22;52402;52.670;6.750;2024-02-21T09:19:32;8.90;99.90
60293;DHT22;52402;52.670;6.750;2024-02-21T09:21:58;9.00;99.90
60293;DHT22;52402;52.670;6.750;2024-02-21T09:24:26;9.10;99.90
60293;DHT22;52402;52.670;6.750;2024-02-21T09:26:54;9.00;99.90
60293;DHT22;52402;52.670;6.750;2024-02-21T09:29:21;9.10;99.90
60293;DHT22;52402;52.670;6.750;2024-02-21T09:31:46;9.10;99.90
60293;DHT22;52402;52.670;6.750;2024-02-21T09:34:13;9.10;99.90
60293;DHT22;52402;52.670;6.750;2024-02-21T09:36:38;9.10;99.90
60293;DHT22;52402;52.670;6.750;2024-02-21T09:39:05;9.10;99.90
60293;DHT22;52402;52.670;6.750;2024-02-21T09:41:32;9.10;99.90
60293;DHT22;52402;52.670;6.750;2024-02-21T09:44:01;9.20;99.90
60293;DHT22;52402;52.670;6.750;2024-02-21T09:51:54;9.30;99.90
60293;DHT22;52402;52.670;6.750;2024-02-21T09:54:21;9.30;99.90
60293;DHT22;52402;52.670;6.750;2024-02-21T09:56:47;9.30;99.90
60293;DHT22;52402;52.670;6.750;2024-02-21T09:59:16;9.20;99.90
60293;DHT22;52402;52.670;6.750;2024-02-21T10:01:43;9.30;99.90
60293;DHT22;52402;52.670;6.750;2024-02-21T10:04:12;9.20;99.90
60293;DHT22;52402;52.670;6.750;2024-02-21T10:06:38;9.20;99.90
60293;DHT22;52402;52.670;6.750;2024-02-21T10:09:06;9.20;99.90
60293;DHT22;52402;52.670;6.750;2024-02-21T10:11:33;9.20;99.90
60293;DHT22;52402;52.670;6.750;2024-02-21T10:14:06;9.20;99.90
60293;DHT22;52402;52.670;6.750;2024-02-21T10:16:32;9.30;99.90
60293;DHT22;52402;52.670;6.750;2024-02-21T10:18:59;9.40;99.90
60293;DHT22;52402;52.670;6.750;2024-02-21T10:21:25;9.40;99.90
60293;DHT22;52402;52.670;6.750;2024-02-21T10:23:51;9.40;99.90
60293;DHT22;52402;52.670;6.750;2024-02-21T10:26:20;9.50;99.90
60293;DHT22;52402;52.670;6.750;2024-02-21T10:28:47;9.50;99.90
60293;DHT22;52402;52.670;6.750;2024-02-21T10:31:32;9.50;99.90
60293;DHT22;52402;52.670;6.750;2024-02-21T10:34:01;9.50;99.90
60293;DHT22;52402;52.670;6.750;2024-02-21T10:36:33;9.50;99.90
60293;DHT22;52402;52.670;6.750;2024-02-21T10:38:59;9.50;99.90
60293;DHT22;52402;52.670;6.750;2024-02-21T10:41:25;9.60;99.90
60293;DHT22;52402;52.670;6.750;2024-02-21T10:43:54;9.60;99.90
60293;DHT22;52402;52.670;6.750;2024-02-21T10:46:22;9.70;99.90
60293;DHT22;52402;52.670;6.750;2024-02-21T10:49:13;9.70;99.90
60293;DHT22;52402;52.670;6.750;2024-02-21T10:51:43;9.80;99.90
60293;DHT22;52402;52.670;6.750;2024-02-21T10:56:51;9.80;99.90
60293;DHT22;52402;52.670;6.750;2024-02-21T10:59:17;9.80;99.90
60293;DHT22;52402;52.670;6.750;2024-02-21T11:01:45;9.80;99.90
60293;DHT22;52402;52.670;6.750;2024-02-21T11:04:11;9.80;99.90
60293;DHT22;52402;52.670;6.750;2024-02-21T11:06:39;9.80;99.90
60293;DHT22;52402;52.670;6.750;2024-02-21T11:09:09;9.80;99.90
60293;DHT22;52402;52.670;6.750;2024-02-21T11:11:40;9.80;99.90
60293;DHT22;52402;52.670;6.750;2024-02-21T11:14:18;9.80;99.90
60293;DHT22;52402;52.670;6.750;2024-02-21T11:16:44;9.80;99.90
60293;DHT22;52402;52.670;6.750;2024-02-21T11:21:44;10.00;99.90
60293;DHT22;52402;52.670;6.750;2024-02-21T11:24:10;10.00;99.90
60293;DHT22;52402;52.670;6.750;2024-02-21T11:26:37;10.10;99.90
60293;DHT22;52402;52.670;6.750;2024-02-21T11:29:04;10.10;99.90
60293;DHT22;52402;52.670;6.750;2024-02-21T11:31:41;10.20;99.90
60293;DHT22;52402;52.670;6.750;2024-02-21T11:34:11;10.20;99.90
60293;DHT22;52402;52.670;6.750;2024-02-21T11:36:49;10.20;99.90
60293;DHT22;52402;52.670;6.750;2024-02-21T11:39:23;10.30;99.90
60293;DHT22;52402;52.670;6.750;2024-02-21T11:42:06;10.30;99.90
60293;DHT22;52402;52.670;6.750;2024-02-21T11:44:38;10.30;99.90
60293;DHT22;52402;52.670;6.750;2024-02-21T11:47:08;10.30;99.90
60293;DHT22;52402;52.670;6.750;2024-02-21T11:49:48;10.30;99.90
60293;DHT22;52402;52.670;6.750;2024-02-21T11:52:55;10.30;99.90
60293;DHT22;52402;52.670;6.750;2024-02-21T11:55:49;10.40;99.90
60293;DHT22;52402;52.670;6.750;2024-02-21T11:58:15;10.30;99.90
60293;DHT22;52402;52.670;6.750;2024-02-21T12:01:11;10.30;99.90
60293;DHT22;52402;52.670;6.750;2024-02-21T12:04:05;10.20;99.90
60293;DHT22;52402;52.670;6.750;2024-02-21T12:06:45;10.20;99.90
60293;DHT22;52402;52.670;6.750;2024-02-21T12:12:41;10.10;99.90
60293;DHT22;52402;52.670;6.750;2024-02-21T12:18:14;10.10;99.90
60293;DHT22;52402;52.670;6.750;2024-02-21T12:21:00;10.10;99.90
60293;DHT22;52402;52.670;6.750;2024-02-21T12:26:36;10.10;99.90
60293;DHT22;52402;52.670;6.750;2024-02-21T12:29:02;10.10;99.90
60293;DHT22;52402;52.670;6.750;2024-02-21T12:31:28;10.10;99.90
60293;DHT22;52402;52.670;6.750;2024-02-21T12:33:54;10.10;99.90
60293;DHT22;52402;52.670;6.750;2024-02-21T12:36:20;10.10;99.90
60293;DHT22;52402;52.670;6.750;2024-02-21T12:38:45;10.10;99.90
60293;DHT22;52402;52.670;6.750;2024-02-21T12:41:14;10.10;99.90
60293;DHT22;52402;52.670;6.750;2024-02-21T12:43:58;10.10;99.90
60293;DHT22;52402;52.670;6.750;2024-02-21T12:46:23;10.00;99.90
60293;DHT22;52402;52.670;6.750;2024-02-21T12:48:55;10.00;99.90
60293;DHT22;52402;52.670;6.750;2024-02-21T12:51:21;9.90;99.90
60293;DHT22;52402;52.670;6.750;2024-02-21T12:53:56;9.90;99.90
60293;DHT22;52402;52.670;6.750;2024-02-21T12:56:25;9.90;99.90
60293;DHT22;52402;52.670;6.750;2024-02-21T12:58:56;9.80;99.90
60293;DHT22;52402;52.670;6.750;2024-02-21T13:01:21;9.80;99.90
60293;DHT22;52402;52.670;6.750;2024-02-21T13:04:06;9.70;99.90
60293;DHT22;52402;52.670;6.750;2024-02-21T13:07:04;9.60;99.90
60293;DHT22;52402;52.670;6.750;2024-02-21T13:10:15;9.70;99.90
60293;DHT22;52402;52.670;6.750;2024-02-21T13:13:01;9.70;99.90
60293;DHT22;52402;52.670;6.750;2024-02-21T13:15:30;9.90;99.90
60293;DHT22;52402;52.670;6.750;2024-02-21T13:17:56;9.90;99.90
60293;DHT22;52402;52.670;6.750;2024-02-21T13:20:32;9.90;99.90
60293;DHT22;52402;52.670;6.750;2024-02-21T13:23:02;9.90;99.90
60293;DHT22;52402;52.670;6.750;2024-02-21T13:25:28;10.00;99.90
60293;DHT22;52402;52.670;6.750;2024-02-21T13:27:54;10.00;99.90
60293;DHT22;52402;52.670;6.750;2024-02-21T13:30:22;10.10;99.90
60293;DHT22;52402;52.670;6.750;2024-02-21T13:32:48;10.10;99.90
60293;DHT22;52402;52.670;6.750;2024-02-21T13:35:14;10.20;99.90
60293;DHT22;52402;52.670;6.750;2024-02-21T13:37:43;10.20;99.90
60293;DHT22;52402;52.670;6.750;2024-02-21T13:40:09;10.20;99.90
60293;DHT22;52402;52.670;6.750;2024-02-21T13:42:36;10.20;99.90
60293;DHT22;52402;52.670;6.750;2024-02-21T13:45:02;10.20;99.90
60293;DHT22;52402;52.670;6.750;2024-02-21T13:47:28;10.20;99.90
60293;DHT22;52402;52.670;6.750;2024-02-21T13:49:54;10.20;99.90
60293;DHT22;52402;52.670;6.750;2024-02-21T13:52:21;10.20;99.90
60293;DHT22;52402;52.670;6.750;2024-02-21T13:54:47;10.10;99.90
60293;DHT22;52402;52.670;6.750;2024-02-21T13:57:13;10.20;99.90
60293;DHT22;52402;52.670;6.750;2024-02-21T13:59:39;10.10;99.90
60293;DHT22;52402;52.670;6.750;2024-02-21T14:02:05;10.10;99.90
60293;DHT22;52402;52.670;6.750;2024-02-21T14:04:36;10.10;99.90
60293;DHT22;52402;52.670;6.750;2024-02-21T14:07:01;10.20;99.90
60293;DHT22;52402;52.670;6.750;2024-02-21T14:09:28;10.10;99.90
60293;DHT22;52402;52.670;6.750;2024-02-21T14:11:58;10.10;99.90
60293;DHT22;52402;52.670;6.750;2024-02-21T14:14:24;10.10;99.90
60293;DHT22;52402;52.670;6.750;2024-02-21T14:16:50;10.00;99.90
60293;DHT22;52402;52.670;6.750;2024-02-21T14:19:15;10.10;99.90
60293;DHT22;52402;52.670;6.750;2024-02-21T14:21:41;10.00;99.90
60293;DHT22;52402;52.670;6.750;2024-02-21T14:24:10;10.00;99.90
60293;DHT22;52402;52.670;6.750;2024-02-21T14:26:35;9.90;99.90
60293;DHT22;52402;52.670;6.750;2024-02-21T14:29:01;10.00;99.90
60293;DHT22;52402;52.670;6.750;2024-02-21T14:31:31;10.00;99.90
60293;DHT22;52402;52.670;6.750;2024-02-21T14:33:56;10.00;99.90
60293;DHT22;52402;52.670;6.750;2024-02-21T14:36:22;10.00;99.90
60293;DHT22;52402;52.670;6.750;2024-02-21T14:38:49;10.00;99.90
60293;DHT22;52402;52.670;6.750;2024-02-21T14:41:17;10.00;99.90
60293;DHT22;52402;52.670;6.750;2024-02-21T14:43:45;10.00;99.90
60293;DHT22;52402;52.670;6.750;2024-02-21T14:46:11;9.90;99.90
60293;DHT22;52402;52.670;6.750;2024-02-21T14:48:38;9.90;99.90
60293;DHT22;52402;52.670;6.750;2024-02-21T14:51:04;9.90;99.90
60293;DHT22;52402;52.670;6.750;2024-02-21T14:53:30;9.90;99.90
60293;DHT22;52402;52.670;6.750;2024-02-21T14:55:56;9.90;99.90
60293;DHT22;52402;52.670;6.750;2024-02-21T14:58:23;9.90;99.90
60293;DHT22;52402;52.670;6.750;2024-02-21T15:00:50;9.90;99.90
60293;DHT22;52402;52.670;6.750;2024-02-21T15:03:16;9.90;99.90
60293;DHT22;52402;52.670;6.750;2024-02-21T15:05:49;9.90;99.90
60293;DHT22;52402;52.670;6.750;2024-02-21T15:08:17;9.90;99.90
60293;DHT22;52402;52.670;6.750;2024-02-21T15:10:44;9.90;99.90
60293;DHT22;52402;52.670;6.750;2024-02-21T15:13:10;9.90;99.90
60293;DHT22;52402;52.670;6.750;2024-02-21T15:15:36;9.80;99.90
60293;DHT22;52402;52.670;6.750;2024-02-21T15:18:01;9.80;99.90
60293;DHT22;52402;52.670;6.750;2024-02-21T15:20:28;9.80;99.90
60293;DHT22;52402;52.670;6.750;2024-02-21T15:22:54;9.80;99.90
60293;DHT22;52402;52.670;6.750;2024-02-21T15:25:20;9.80;99.90
60293;DHT22;52402;52.670;6.750;2024-02-21T15:27:46;9.80;99.90
60293;DHT22;52402;52.670;6.750;2024-02-21T15:30:12;9.80;99.90
60293;DHT22;52402;52.670;6.750;2024-02-21T15:32:39;9.80;99.90
60293;DHT22;52402;52.670;6.750;2024-02-21T15:35:10;9.80;99.90
60293;DHT22;52402;52.670;6.750;2024-02-21T15:37:39;9.80;99.90
60293;DHT22;52402;52.670;6.750;2024-02-21T15:40:05;9.80;99.90
60293;DHT22;52402;52.670;6.750;2024-02-21T15:42:33;9.80;99.90
60293;DHT22;52402;52.670;6.750;2024-02-21T15:44:59;9.80;99.90
60293;DHT22;52402;52.670;6.750;2024-02-21T15:47:43;9.80;99.90
60293;DHT22;52402;52.670;6.750;2024-02-21T15:50:27;9.80;99.90
60293;DHT22;52402;52.670;6.750;2024-02-21T15:53:29;9.80;99.90
60293;DHT22;52402;52.670;6.750;2024-02-21T15:56:00;9.80;99.90
60293;DHT22;52402;52.670;6.750;2024-02-21T15:58:33;9.80;99.90
60293;DHT22;52402;52.670;6.750;2024-02-21T16:01:22;9.80;99.90
60293;DHT22;52402;52.670;6.750;2024-02-21T16:03:51;9.70;99.90
60293;DHT22;52402;52.670;6.750;2024-02-21T16:06:24;9.70;99.90
60293;DHT22;52402;52.670;6.750;2024-02-21T16:08:55;9.70;99.90
60293;DHT22;52402;52.670;6.750;2024-02-21T16:11:20;9.60;99.90
60293;DHT22;52402;52.670;6.750;2024-02-21T16:13:46;9.60;99.90
60293;DHT22;52402;52.670;6.750;2024-02-21T16:16:19;9.60;99.90
60293;DHT22;52402;52.670;6.750;2024-02-21T16:18:44;9.60;99.90
60293;DHT22;52402;52.670;6.750;2024-02-21T16:21:13;9.50;99.90
60293;DHT22;52402;52.670;6.750;2024-02-21T16:23:41;9.50;99.90